Coleridge, North Carolina
Current Conditions -  °F | °C
As of 12:35 AM on Sunday 23 Nov 2014 (Local Time) from K5W8 Reporting Station
Clear Clear  
Wind Chill: 31°   Ceiling: Unl
Heat Index: 31°   Visibility: 10mi
Dew Point: 26°   Wind: 0mph
Humidity: 81%   Direction: NA
Pressure: 30.31"   Gusts: NA
Location:  35.6832°N, 79.6174°W
Report Text: K5W8 230535Z AUTO 00000KT 10SM CLR M01/M03 A3031 RMK AO2 T10061035
Loading
Personal Weather Stations






























Interactive Weather Map New forecast layout! Learn more

10-Day Weather Forecast

Advertisements
Track Severe Weather on mobile